Weather at Peik's Airport [CLOSED]

Public forecast

Using degrees Fahrenheit for public forecast. Weather courtesy of forecast.io.

Closest aviation weather report (METAR) to Peik's Airport

Closest report is San Diego International Airport, 2.1 nm (3.8 km) SSE.

2024/07/24 19:51 (retrieved 39 minutes ago)

KSAN 241951Z 28010KT 10SM FEW012 SCT050 27/19 A3004 RMK AO2 SLP172 CB DSNT NE T02670194

Closest aviation forecast (TAF) to Peik's Airport

Closest forecast is San Diego International Airport, 2.1 nm (3.8 km) SSE.

2024/07/24 20:03 Ammendment (retrieved 27 minutes ago)

TAF AMD KSAN 242000Z 2420/2524 29010KT P6SM SCT120 FM250300 VRB04KT P6SM FEW010 TEMPO 2508/2512 BKN010 FM251200 VRB03KT P6SM BKN009 FM251600 VRB04KT P6SM SCT010 FM251800 30010KT P6SM SKC